Time;durP1;ratioP1;P1;durP2;ratioP2;P2;SDS_P1;SDS_P2;PMS_P1;PMS_P2;Temp;Humidity;BMP_temperature;BMP_pressure;BME280_temperature;BME280_humidity;BME280_pressure;Samples;Min_cycle;Max_cycle;Signal;HPM_P1;HPM_P2
2023/08/08 00:00:43;;;;;;;3.27;1.27;;;;;12.60;96997.00;;;;5040646;28;20698;-67
2023/08/08 00:03:32;;;;;;;0.80;0.80;;;;;12.60;96999.00;;;;5043367;28;20244;-67
2023/08/08 00:08:50;;;;;;;2.17;1.20;;;;;12.50;97000.00;;;;5043947;28;20216;-68
2023/08/08 00:11:39;;;;;;;1.83;0.97;;;;;12.60;96990.00;;;;5045330;28;20207;-68
2023/08/08 00:14:28;;;;;;;3.13;1.00;;;;;12.60;96999.00;;;;5045281;28;20188;-69
2023/08/08 00:17:18;;;;;;;1.10;1.00;;;;;12.40;96983.00;;;;5038056;28;20232;-68
2023/08/08 00:20:09;;;;;;;1.77;1.20;;;;;12.50;96991.00;;;;5025167;28;20231;-69
2023/08/08 00:22:58;;;;;;;1.03;0.93;;;;;12.50;96993.00;;;;5017567;28;20240;-69
2023/08/08 00:25:49;;;;;;;1.07;0.93;;;;;12.40;96992.00;;;;5023733;28;20198;-68
2023/08/08 00:28:38;;;;;;;1.03;0.83;;;;;12.40;96992.00;;;;5026345;28;20298;-68
2023/08/08 00:31:27;;;;;;;0.90;0.90;;;;;12.50;96987.00;;;;5019512;28;20202;-69
2023/08/08 00:34:18;;;;;;;3.10;1.07;;;;;12.50;96982.00;;;;5029448;28;20207;-69
2023/08/08 00:37:07;;;;;;;3.23;1.10;;;;;12.50;96981.00;;;;5028878;28;20248;-69
2023/08/08 00:39:56;;;;;;;1.03;0.93;;;;;12.20;96996.00;;;;5022731;28;20203;-68
2023/08/08 00:42:45;;;;;;;0.80;0.80;;;;;12.40;96991.00;;;;5025282;28;20233;-69
2023/08/08 00:45:34;;;;;;;3.40;0.97;;;;;12.40;96988.00;;;;5029531;28;20201;-69
2023/08/08 00:48:24;;;;;;;1.07;1.00;;;;;12.30;96998.00;;;;5025853;28;20217;-69
2023/08/08 00:51:14;;;;;;;1.50;0.90;;;;;12.00;97004.00;;;;5025771;28;20233;-69
2023/08/08 00:54:04;;;;;;;1.03;0.73;;;;;12.20;97007.00;;;;5028056;28;20200;-69
2023/08/08 00:56:53;;;;;;;1.20;1.00;;;;;12.20;97005.00;;;;5023422;28;20225;-68
2023/08/08 00:59:42;;;;;;;0.80;0.80;;;;;12.20;97008.00;;;;5020224;28;20974;-69
2023/08/08 01:02:31;;;;;;;2.03;1.07;;;;;12.20;97018.00;;;;5018165;28;20204;-69
2023/08/08 01:05:21;;;;;;;6.20;1.17;;;;;12.30;96993.00;;;;5015917;28;20221;-68
2023/08/08 01:08:13;;;;;;;1.37;0.97;;;;;12.40;96989.00;;;;5028127;28;20248;-69
2023/08/08 01:11:03;;;;;;;2.60;1.40;;;;;12.20;96990.00;;;;5018231;28;20209;-68
2023/08/08 01:13:52;;;;;;;1.20;0.80;;;;;12.20;97007.00;;;;5017326;28;20205;-67
2023/08/08 01:16:41;;;;;;;0.83;0.83;;;;;12.00;97008.00;;;;5028916;28;20227;-68
2023/08/08 01:19:32;;;;;;;2.20;1.00;;;;;12.00;97007.00;;;;5028699;28;20247;-69
2023/08/08 01:22:26;;;;;;;1.37;0.93;;;;;11.90;97006.00;;;;5028598;28;20677;-69
2023/08/08 01:25:16;;;;;;;1.30;0.90;;;;;11.70;97009.00;;;;5030510;28;20581;-69
2023/08/08 01:28:06;;;;;;;1.27;1.17;;;;;11.40;97007.00;;;;5025791;28;20225;-68
2023/08/08 01:30:55;;;;;;;0.77;0.77;;;;;11.50;97013.00;;;;5013913;28;20210;-68
2023/08/08 01:33:44;;;;;;;1.00;0.73;;;;;11.70;97020.00;;;;5018722;28;20198;-67
2023/08/08 01:36:36;;;;;;;1.83;1.10;;;;;11.80;97015.00;;;;5010746;28;20231;-68
2023/08/08 01:39:28;;;;;;;0.93;0.87;;;;;11.60;97017.00;;;;5030354;28;20213;-68
2023/08/08 01:42:20;;;;;;;1.77;1.10;;;;;11.80;97010.00;;;;5026152;28;20212;-68
2023/08/08 01:45:10;;;;;;;3.43;0.90;;;;;11.90;97011.00;;;;5030718;28;20225;-68
2023/08/08 01:47:59;;;;;;;3.27;1.03;;;;;11.80;97004.00;;;;5019161;28;20599;-67
2023/08/08 01:50:48;;;;;;;1.93;1.30;;;;;11.20;97010.00;;;;5029828;28;20285;-68
2023/08/08 01:53:37;;;;;;;1.17;0.90;;;;;11.20;97018.00;;;;5026602;28;20210;-68
2023/08/08 01:56:26;;;;;;;3.43;0.80;;;;;11.50;97012.00;;;;5028539;28;20197;-69
2023/08/08 01:59:16;;;;;;;0.60;0.60;;;;;11.70;97018.00;;;;5029854;28;20207;-67
2023/08/08 02:02:06;;;;;;;3.53;1.67;;;;;11.40;97007.00;;;;5023900;28;20195;-68
2023/08/08 02:04:55;;;;;;;1.03;0.90;;;;;11.50;97012.00;;;;5025861;28;20571;-67
2023/08/08 02:07:44;;;;;;;1.07;0.87;;;;;11.40;97012.00;;;;5026072;28;20229;-69
2023/08/08 02:10:33;;;;;;;6.63;1.00;;;;;11.40;97022.00;;;;5026787;28;20205;-68
2023/08/08 02:13:22;;;;;;;1.13;0.70;;;;;11.20;97011.00;;;;5024792;28;20189;-68
2023/08/08 02:16:12;;;;;;;0.90;0.73;;;;;11.20;97025.00;;;;5022813;28;20198;-68
2023/08/08 02:19:01;;;;;;;1.37;0.77;;;;;11.10;97015.00;;;;5026818;28;20589;-69
2023/08/08 02:21:51;;;;;;;0.87;0.60;;;;;10.70;97018.00;;;;5021446;28;20204;-67
2023/08/08 02:24:40;;;;;;;0.77;0.77;;;;;10.40;97019.00;;;;5020983;28;20263;-67
2023/08/08 02:27:29;;;;;;;0.80;0.73;;;;;11.00;97017.00;;;;5021149;28;20221;-66
2023/08/08 02:30:18;;;;;;;0.70;0.70;;;;;11.30;97029.00;;;;5029391;28;20208;-66
2023/08/08 02:33:08;;;;;;;1.30;1.00;;;;;11.20;97026.00;;;;5028342;28;20201;-69
2023/08/08 02:35:57;;;;;;;1.00;0.70;;;;;11.40;97027.00;;;;5029862;28;20203;-68
2023/08/08 02:38:46;;;;;;;0.70;0.63;;;;;11.50;97034.00;;;;5028824;28;20204;-68
2023/08/08 02:41:35;;;;;;;0.63;0.63;;;;;11.60;97035.00;;;;5027004;28;20193;-67
2023/08/08 02:44:24;;;;;;;1.33;0.87;;;;;11.50;97029.00;;;;5023532;28;20224;-68
2023/08/08 02:47:13;;;;;;;0.77;0.50;;;;;11.20;97031.00;;;;5025678;28;20236;-66
2023/08/08 02:50:04;;;;;;;2.17;0.87;;;;;10.90;97033.00;;;;5022408;28;20197;-68
2023/08/08 02:52:53;;;;;;;0.60;0.60;;;;;11.00;97030.00;;;;5024187;28;20205;-68
2023/08/08 02:55:42;;;;;;;3.77;0.73;;;;;11.10;97041.00;;;;5027798;28;20679;-68
2023/08/08 02:58:31;;;;;;;2.03;0.70;;;;;11.20;97043.00;;;;5021220;28;20221;-69
2023/08/08 03:01:21;;;;;;;3.57;1.47;;;;;10.70;97024.00;;;;5026319;28;20205;-68
2023/08/08 03:04:10;;;;;;;3.40;0.90;;;;;11.00;97021.00;;;;5028684;28;20225;-69
2023/08/08 03:07:03;;;;;;;1.63;0.37;;;;;11.20;97027.00;;;;5025048;28;20240;-69
2023/08/08 03:09:52;;;;;;;1.70;0.80;;;;;10.80;97029.00;;;;5016098;28;20205;-68
2023/08/08 03:12:42;;;;;;;1.40;1.00;;;;;10.60;97032.00;;;;5021756;28;20217;-67
2023/08/08 03:15:31;;;;;;;1.10;1.00;;;;;11.00;97023.00;;;;5022988;28;20202;-68
2023/08/08 03:18:20;;;;;;;1.27;1.00;;;;;11.20;97035.00;;;;5020987;28;20232;-68
2023/08/08 03:21:09;;;;;;;0.80;0.80;;;;;10.80;97041.00;;;;5021239;28;20205;-68
2023/08/08 03:23:59;;;;;;;1.47;0.90;;;;;10.70;97031.00;;;;5028550;28;20240;-67
2023/08/08 03:26:48;;;;;;;1.33;1.27;;;;;10.60;97038.00;;;;5024962;28;20229;-67
2023/08/08 03:29:37;;;;;;;0.93;0.83;;;;;10.80;97043.00;;;;5026541;28;20703;-69
2023/08/08 03:32:26;;;;;;;2.03;1.10;;;;;11.00;97042.00;;;;5027451;28;20197;-68
2023/08/08 03:35:15;;;;;;;1.50;1.30;;;;;11.10;97048.00;;;;5028296;28;20676;-68
2023/08/08 03:38:05;;;;;;;1.30;0.80;;;;;11.20;97052.00;;;;5025210;28;20238;-69
2023/08/08 03:40:55;;;;;;;1.10;1.00;;;;;11.10;97053.00;;;;5017430;28;20226;-68
2023/08/08 03:43:44;;;;;;;1.23;0.87;;;;;10.90;97037.00;;;;5017533;28;20240;-67
2023/08/08 03:46:33;;;;;;;0.83;0.83;;;;;10.90;97048.00;;;;5020569;28;20664;-67
2023/08/08 03:49:22;;;;;;;1.07;0.63;;;;;10.80;97048.00;;;;5025647;28;20197;-67
2023/08/08 03:52:12;;;;;;;1.10;0.80;;;;;10.60;97034.00;;;;5025332;28;20270;-68
2023/08/08 03:55:01;;;;;;;1.43;0.87;;;;;10.70;97043.00;;;;5024648;28;20193;-68
2023/08/08 03:57:51;;;;;;;1.33;0.90;;;;;10.80;97043.00;;;;5027578;28;20225;-68
2023/08/08 04:00:45;;;;;;;1.40;1.30;;;;;10.80;97040.00;;;;5026409;28;20204;-68
2023/08/08 04:03:35;;;;;;;0.80;0.70;;;;;10.60;97041.00;;;;5017844;28;20673;-67
2023/08/08 04:06:24;;;;;;;1.10;1.00;;;;;10.40;97044.00;;;;5027633;28;20212;-68
2023/08/08 04:09:13;;;;;;;1.10;1.00;;;;;10.50;97047.00;;;;5023333;28;20665;-68
2023/08/08 04:12:02;;;;;;;0.80;0.70;;;;;10.40;97047.00;;;;5024517;28;20298;-69
2023/08/08 04:14:52;;;;;;;2.47;1.20;;;;;10.30;97058.00;;;;5023233;28;20205;-68
2023/08/08 04:17:41;;;;;;;0.93;0.83;;;;;10.30;97055.00;;;;5023113;28;20221;-68
2023/08/08 04:20:30;;;;;;;1.70;0.90;;;;;10.20;97068.00;;;;5024812;28;20197;-69
2023/08/08 04:23:19;;;;;;;2.27;1.00;;;;;10.10;97064.00;;;;5026928;28;20197;-69
2023/08/08 04:26:08;;;;;;;3.33;2.37;;;;;10.50;97066.00;;;;5025105;28;20228;-68
2023/08/08 04:28:57;;;;;;;3.57;2.07;;;;;10.80;97072.00;;;;5017692;28;20205;-69
2023/08/08 04:31:48;;;;;;;4.03;3.33;;;;;10.80;97070.00;;;;5010273;28;20202;-69
2023/08/08 04:34:37;;;;;;;3.80;3.30;;;;;10.80;97070.00;;;;5025360;28;20212;-68
2023/08/08 04:37:26;;;;;;;3.73;3.13;;;;;10.90;97067.00;;;;5022359;28;20233;-69
2023/08/08 04:40:15;;;;;;;3.00;2.77;;;;;11.00;97078.00;;;;5025860;28;20197;-69
2023/08/08 04:43:04;;;;;;;2.40;2.03;;;;;10.80;97066.00;;;;5024205;28;20209;-69
2023/08/08 04:45:53;;;;;;;1.80;1.37;;;;;10.80;97075.00;;;;5027468;28;20224;-67
2023/08/08 04:48:43;;;;;;;2.07;1.87;;;;;11.20;97074.00;;;;5024118;28;20236;-69
2023/08/08 04:51:32;;;;;;;1.13;1.00;;;;;10.90;97079.00;;;;5012619;28;20712;-68
2023/08/08 04:54:22;;;;;;;1.60;1.10;;;;;11.00;97084.00;;;;5017802;28;20714;-68
2023/08/08 04:57:11;;;;;;;0.87;0.83;;;;;11.00;97088.00;;;;5022277;28;20221;-69
2023/08/08 05:00:02;;;;;;;3.23;1.23;;;;;11.20;97087.00;;;;5023767;28;20250;-68
2023/08/08 05:02:52;;;;;;;2.67;1.90;;;;;11.40;97090.00;;;;5021453;28;20688;-67
2023/08/08 05:05:44;;;;;;;2.10;1.70;;;;;11.50;97098.00;;;;5025658;28;20263;-69
2023/08/08 05:08:33;;;;;;;1.37;1.27;;;;;11.40;97101.00;;;;5024682;28;20225;-69
2023/08/08 05:11:22;;;;;;;3.10;1.90;;;;;11.40;97110.00;;;;5030510;28;20206;-68
2023/08/08 05:14:11;;;;;;;1.23;1.03;;;;;11.30;97115.00;;;;5028483;28;20201;-68
2023/08/08 05:17:03;;;;;;;1.17;1.07;;;;;11.40;97109.00;;;;5026892;28;20220;-69
2023/08/08 05:19:52;;;;;;;1.63;1.03;;;;;11.50;97107.00;;;;5025308;28;20205;-68
2023/08/08 05:22:42;;;;;;;1.00;0.83;;;;;11.70;97102.00;;;;5025017;28;20209;-68
2023/08/08 05:25:31;;;;;;;1.00;0.90;;;;;11.60;97112.00;;;;5021827;28;20599;-68
2023/08/08 05:28:20;;;;;;;1.20;1.10;;;;;11.20;97118.00;;;;5027078;28;20223;-69
2023/08/08 05:31:10;;;;;;;0.77;0.77;;;;;11.20;97111.00;;;;5014462;28;20224;-66
2023/08/08 05:33:59;;;;;;;1.00;0.90;;;;;11.70;97107.00;;;;5018041;28;20233;-69
2023/08/08 05:36:48;;;;;;;0.77;0.77;;;;;12.00;97118.00;;;;5025885;28;20222;-68
2023/08/08 05:39:41;;;;;;;3.73;1.47;;;;;12.00;97109.00;;;;5028145;28;20566;-68
2023/08/08 05:42:31;;;;;;;2.00;1.10;;;;;12.00;97116.00;;;;5030042;28;20206;-65
2023/08/08 05:45:20;;;;;;;1.00;0.90;;;;;12.60;97122.00;;;;5020203;28;20249;-67
2023/08/08 05:48:11;;;;;;;3.03;2.60;;;;;12.80;97123.00;;;;5028962;28;20221;-68
2023/08/08 05:51:02;;;;;;;0.63;0.63;;;;;12.70;97125.00;;;;5019410;28;20210;-67
2023/08/08 05:53:51;;;;;;;1.07;0.97;;;;;12.70;97125.00;;;;5024215;28;20548;-69
2023/08/08 05:56:42;;;;;;;2.77;1.00;;;;;12.90;97117.00;;;;5028382;28;20197;-67
2023/08/08 05:59:31;;;;;;;4.53;1.20;;;;;12.90;97117.00;;;;5025326;28;20197;-69
2023/08/08 06:02:20;;;;;;;1.57;1.00;;;;;13.40;97117.00;;;;5026176;28;20213;-69
2023/08/08 06:05:09;;;;;;;1.80;1.20;;;;;13.80;97121.00;;;;5024712;28;20285;-68
2023/08/08 06:07:58;;;;;;;1.43;1.00;;;;;14.00;97117.00;;;;5043700;23;20727;-72
2023/08/08 06:10:47;;;;;;;3.77;1.20;;;;;14.10;97122.00;;;;5023260;28;20202;-71
2023/08/08 06:13:38;;;;;;;1.70;1.40;;;;;14.30;97118.00;;;;5026562;28;20304;-71
2023/08/08 06:16:27;;;;;;;4.90;1.50;;;;;14.50;97126.00;;;;5027437;28;20560;-72
2023/08/08 06:19:16;;;;;;;1.50;1.07;;;;;14.60;97119.00;;;;5023374;28;20197;-72
2023/08/08 06:22:06;;;;;;;1.10;0.97;;;;;14.60;97120.00;;;;5019556;28;20202;-72
2023/08/08 06:24:55;;;;;;;1.20;1.10;;;;;14.70;97126.00;;;;5045825;28;20246;-72
2023/08/08 06:27:44;;;;;;;4.37;1.13;;;;;15.10;97121.00;;;;5045525;28;20232;-72
2023/08/08 06:30:34;;;;;;;3.80;1.10;;;;;15.30;97120.00;;;;5041765;28;20696;-72
2023/08/08 06:33:23;;;;;;;3.13;1.73;;;;;15.60;97113.00;;;;5049326;28;20221;-72
2023/08/08 06:36:13;;;;;;;2.77;1.20;;;;;15.90;97123.00;;;;5044089;28;20203;-72
2023/08/08 06:39:02;;;;;;;1.63;1.50;;;;;16.10;97123.00;;;;5040389;28;20221;-72
2023/08/08 06:41:51;;;;;;;2.03;1.03;;;;;16.20;97119.00;;;;5044991;28;20213;-72
2023/08/08 06:44:43;;;;;;;2.10;1.37;;;;;16.60;97128.00;;;;5038357;28;20696;-72
2023/08/08 06:47:34;;;;;;;6.63;1.80;;;;;16.90;97124.00;;;;5035133;28;20602;-72
2023/08/08 06:50:24;;;;;;;5.23;1.33;;;;;17.20;97124.00;;;;5047775;28;20196;-72
2023/08/08 06:53:13;;;;;;;2.97;1.60;;;;;17.30;97130.00;;;;5048136;28;20799;-72
2023/08/08 06:56:02;;;;;;;3.30;1.33;;;;;17.60;97121.00;;;;5041998;28;20197;-71
2023/08/08 06:58:51;;;;;;;1.90;1.47;;;;;17.90;97122.00;;;;5043112;28;20232;-72
2023/08/08 07:01:40;;;;;;;2.27;1.40;;;;;18.30;97128.00;;;;5037422;28;20576;-71
2023/08/08 07:04:31;;;;;;;3.73;1.60;;;;;18.20;97122.00;;;;5043756;28;20219;-71
2023/08/08 07:07:20;;;;;;;2.40;1.60;;;;;18.00;97116.00;;;;5042116;28;20233;-71
2023/08/08 07:10:09;;;;;;;3.43;1.50;;;;;18.00;97123.00;;;;5046530;28;20200;-71
2023/08/08 07:12:58;;;;;;;4.60;1.30;;;;;18.00;97133.00;;;;5042268;28;20200;-71
2023/08/08 07:15:47;;;;;;;4.93;1.13;;;;;18.50;97128.00;;;;5040729;28;20288;-73
2023/08/08 07:18:37;;;;;;;3.37;1.93;;;;;18.80;97127.00;;;;5034963;28;20339;-72
2023/08/08 07:21:29;;;;;;;4.40;1.27;;;;;19.00;97114.00;;;;5039412;28;20209;-72
2023/08/08 07:24:19;;;;;;;1.40;1.30;;;;;19.30;97108.00;;;;5044644;28;20201;-73
2023/08/08 07:27:08;;;;;;;1.93;1.50;;;;;19.60;97113.00;;;;5037689;28;20309;-72
2023/08/08 07:29:58;;;;;;;2.90;1.50;;;;;19.80;97103.00;;;;5040890;28;20209;-72
2023/08/08 07:32:47;;;;;;;3.30;1.43;;;;;19.40;97111.00;;;;5044730;28;20205;-72
2023/08/08 07:35:37;;;;;;;1.60;1.27;;;;;19.30;97099.00;;;;5033477;28;20311;-72
2023/08/08 07:38:27;;;;;;;1.70;1.20;;;;;19.90;97093.00;;;;5047494;28;20239;-72
2023/08/08 07:41:17;;;;;;;2.50;1.30;;;;;20.10;97102.00;;;;5046377;28;20218;-72
2023/08/08 07:44:07;;;;;;;5.40;1.63;;;;;20.10;97107.00;;;;5044394;28;20664;-72
2023/08/08 07:46:56;;;;;;;2.67;1.10;;;;;20.10;97105.00;;;;5043453;28;20220;-72
2023/08/08 07:49:45;;;;;;;3.00;0.90;;;;;20.30;97091.00;;;;5036083;28;20227;-72
2023/08/08 07:52:34;;;;;;;3.70;1.10;;;;;20.60;97095.00;;;;5043600;28;20454;-72
2023/08/08 07:55:25;;;;;;;0.80;0.80;;;;;20.50;97091.00;;;;5047217;28;20200;-72
2023/08/08 07:58:14;;;;;;;1.93;1.40;;;;;20.70;97088.00;;;;5048419;28;20213;-72
2023/08/08 08:01:03;;;;;;;3.73;1.30;;;;;20.90;97084.00;;;;5040858;28;20205;-72
2023/08/08 08:03:52;;;;;;;3.33;1.40;;;;;20.90;97090.00;;;;5037885;28;20204;-72
2023/08/08 08:06:41;;;;;;;1.57;1.17;;;;;21.10;97084.00;;;;5038591;28;20231;-72
2023/08/08 08:09:32;;;;;;;1.03;0.73;;;;;21.30;97085.00;;;;5044894;28;20196;-71
2023/08/08 08:12:22;;;;;;;0.90;0.90;;;;;21.40;97078.00;;;;5047836;28;20218;-71
2023/08/08 08:15:12;;;;;;;2.60;1.57;;;;;21.60;97079.00;;;;5045951;28;20238;-72
2023/08/08 08:18:01;;;;;;;1.47;1.23;;;;;21.70;97082.00;;;;5048245;28;20220;-71
2023/08/08 08:20:50;;;;;;;3.20;1.17;;;;;22.00;97069.00;;;;5047096;28;20219;-72
2023/08/08 08:23:39;;;;;;;1.57;1.20;;;;;22.20;97070.00;;;;5046119;28;20212;-72
2023/08/08 08:26:28;;;;;;;1.90;1.23;;;;;22.30;97067.00;;;;5046623;28;20212;-71
2023/08/08 08:29:19;;;;;;;1.40;1.20;;;;;22.40;97068.00;;;;5045998;28;20207;-71
2023/08/08 08:32:08;;;;;;;1.20;1.10;;;;;22.70;97068.00;;;;5045143;28;20202;-71
2023/08/08 08:34:58;;;;;;;4.00;3.23;;;;;22.90;97072.00;;;;5048209;28;20197;-72
2023/08/08 08:37:47;;;;;;;1.17;0.90;;;;;22.70;97060.00;;;;5047009;28;20224;-72
2023/08/08 08:40:40;;;;;;;0.83;0.80;;;;;22.90;97060.00;;;;5043828;28;20209;-72
2023/08/08 08:43:29;;;;;;;1.27;0.90;;;;;23.00;97046.00;;;;5036970;28;20684;-72
2023/08/08 08:46:22;;;;;;;1.13;1.03;;;;;23.20;97054.00;;;;5048232;28;20204;-72
2023/08/08 08:49:11;;;;;;;1.57;1.30;;;;;23.50;97050.00;;;;5048208;28;20258;-72
2023/08/08 08:52:01;;;;;;;2.13;0.80;;;;;23.50;97052.00;;;;5039918;28;20196;-72
2023/08/08 08:54:51;;;;;;;4.57;1.43;;;;;23.70;97046.00;;;;5050331;28;20213;-72
2023/08/08 08:57:40;;;;;;;1.87;1.07;;;;;24.00;97052.00;;;;5044843;28;20237;-72
2023/08/08 09:00:30;;;;;;;1.40;1.03;;;;;24.20;97050.00;;;;5046973;28;20196;-72
2023/08/08 09:03:20;;;;;;;4.73;1.33;;;;;23.80;97042.00;;;;5049665;28;20208;-72
2023/08/08 09:06:09;;;;;;;4.53;1.10;;;;;24.40;97031.00;;;;5043641;28;20892;-70
2023/08/08 09:08:58;;;;;;;6.00;1.30;;;;;24.70;97044.00;;;;5046644;28;20239;-72
2023/08/08 09:11:53;;;;;;;1.23;1.00;;;;;23.40;97042.00;;;;5050022;28;20204;-71
2023/08/08 09:14:42;;;;;;;1.10;1.00;;;;;23.60;97031.00;;;;5049911;28;20215;-72
2023/08/08 09:17:33;;;;;;;2.37;1.20;;;;;24.00;97027.00;;;;5042787;28;20712;-72
2023/08/08 09:20:31;;;;;;;1.13;1.03;;;;;23.90;97032.00;;;;5046938;28;20204;-72
2023/08/08 09:23:20;;;;;;;1.60;0.90;;;;;24.70;97017.00;;;;5047045;28;20205;-72
2023/08/08 09:26:09;;;;;;;1.07;0.80;;;;;25.00;97013.00;;;;5048563;28;20711;-72
2023/08/08 09:28:58;;;;;;;2.20;1.10;;;;;24.60;97016.00;;;;5046997;28;20239;-72
2023/08/08 09:31:49;;;;;;;1.03;0.93;;;;;25.50;97016.00;;;;5049086;28;20207;-72
2023/08/08 09:34:38;;;;;;;1.20;1.00;;;;;24.60;97023.00;;;;5047864;28;20227;-72
2023/08/08 09:37:29;;;;;;;4.20;1.60;;;;;25.40;97014.00;;;;5048916;28;20259;-72
2023/08/08 09:40:18;;;;;;;1.57;1.43;;;;;25.80;97007.00;;;;5038287;28;20210;-72
2023/08/08 09:43:09;;;;;;;1.17;0.90;;;;;26.10;97006.00;;;;5041513;28;20209;-72
2023/08/08 09:45:58;;;;;;;1.30;0.97;;;;;26.50;97014.00;;;;5042375;28;20205;-72
2023/08/08 09:48:47;;;;;;;1.70;1.03;;;;;26.40;97006.00;;;;5041804;28;20223;-72
2023/08/08 09:51:36;;;;;;;1.43;0.90;;;;;26.40;97011.00;;;;5046241;28;20215;-72
2023/08/08 09:54:27;;;;;;;4.20;1.53;;;;;26.40;97013.00;;;;5045005;28;20201;-72
2023/08/08 09:57:17;;;;;;;5.07;1.20;;;;;26.70;97003.00;;;;5047224;28;20229;-72
2023/08/08 10:00:11;;;;;;;3.97;2.13;;;;;26.70;97000.00;;;;5046958;28;20208;-72
2023/08/08 10:03:01;;;;;;;1.23;1.00;;;;;27.00;97002.00;;;;5045689;28;20219;-72
2023/08/08 10:05:50;;;;;;;0.90;0.70;;;;;26.60;96988.00;;;;5045203;28;20245;-72
2023/08/08 10:08:39;;;;;;;1.63;1.23;;;;;24.80;96986.00;;;;5044894;28;20227;-72
2023/08/08 10:11:32;;;;;;;2.50;1.53;;;;;24.70;96971.00;;;;5049275;28;20694;-70
2023/08/08 10:14:21;;;;;;;1.53;1.03;;;;;24.10;96981.00;;;;5048773;28;20594;-71
2023/08/08 10:17:14;;;;;;;0.87;0.80;;;;;24.80;96974.00;;;;5047126;28;20224;-71
2023/08/08 10:20:11;;;;;;;0.60;0.60;;;;;24.60;96974.00;;;;5048725;28;20193;-72
2023/08/08 10:23:02;;;;;;;1.73;0.83;;;;;26.20;96975.00;;;;5044983;28;20547;-72
2023/08/08 10:25:52;;;;;;;1.23;0.90;;;;;26.60;96966.00;;;;5048590;28;20205;-72
2023/08/08 10:28:43;;;;;;;0.97;0.87;;;;;27.10;96958.00;;;;5047240;28;20220;-72
2023/08/08 10:31:36;;;;;;;0.93;0.83;;;;;27.30;96967.00;;;;5041527;28;20205;-72
2023/08/08 10:34:36;;;;;;;0.70;0.70;;;;;26.80;96960.00;;;;5049806;28;20208;-73
2023/08/08 10:37:25;;;;;;;1.40;0.90;;;;;27.30;96957.00;;;;5048142;28;20233;-73
2023/08/08 10:40:19;;;;;;;1.73;1.63;;;;;27.80;96962.00;;;;5048049;28;20704;-73
2023/08/08 10:43:12;;;;;;;1.40;0.90;;;;;27.90;96964.00;;;;5048478;28;20204;-74
2023/08/08 10:46:04;;;;;;;0.80;0.70;;;;;28.40;96952.00;;;;5042061;28;20202;-73
2023/08/08 10:49:02;;;;;;;1.40;0.77;;;;;28.80;96943.00;;;;5044981;28;20218;-72
2023/08/08 10:51:52;;;;;;;1.53;1.10;;;;;28.90;96952.00;;;;5049157;28;20268;-74
2023/08/08 10:54:54;;;;;;;1.10;0.70;;;;;27.70;96929.00;;;;5045663;28;20674;-71
2023/08/08 10:57:43;;;;;;;2.27;1.07;;;;;28.40;96934.00;;;;5041903;28;20232;-72
2023/08/08 11:00:34;;;;;;;3.13;1.10;;;;;28.90;96934.00;;;;5040155;28;20199;-72
2023/08/08 11:03:25;;;;;;;1.47;0.90;;;;;29.30;96931.00;;;;5048698;28;20203;-72
2023/08/08 11:06:14;;;;;;;0.77;0.70;;;;;29.70;96918.00;;;;5048842;28;20203;-73
2023/08/08 11:09:05;;;;;;;1.40;0.97;;;;;28.50;96925.00;;;;5040451;28;20722;-71
2023/08/08 11:11:54;;;;;;;0.93;0.93;;;;;29.00;96916.00;;;;5044130;28;20204;-71
2023/08/08 11:14:44;;;;;;;1.07;0.90;;;;;30.10;96901.00;;;;5040194;28;20208;-71
2023/08/08 11:17:33;;;;;;;0.70;0.63;;;;;30.40;96903.00;;;;5045924;28;20769;-71
2023/08/08 11:20:24;;;;;;;0.57;0.53;;;;;28.90;96942.00;;;;5044104;28;20201;-70
2023/08/08 11:23:13;;;;;;;0.73;0.57;;;;;29.60;96893.00;;;;5038904;28;20195;-71
2023/08/08 11:26:03;;;;;;;1.23;0.70;;;;;30.00;96905.00;;;;5041014;28;20211;-71
2023/08/08 11:28:55;;;;;;;0.93;0.87;;;;;29.80;96904.00;;;;5048070;28;20615;-71
2023/08/08 11:31:44;;;;;;;0.87;0.50;;;;;30.40;96896.00;;;;5029360;28;20214;-71
2023/08/08 11:34:33;;;;;;;1.10;0.80;;;;;29.40;96890.00;;;;5040117;28;20218;-71
2023/08/08 11:37:24;;;;;;;1.37;0.73;;;;;30.40;96884.00;;;;5043006;28;20226;-71
2023/08/08 11:40:13;;;;;;;1.60;0.67;;;;;27.80;96942.00;;;;5041903;28;20582;-70
2023/08/08 11:43:02;;;;;;;1.20;0.87;;;;;28.20;96921.00;;;;5044637;28;20199;-70
2023/08/08 11:45:51;;;;;;;0.50;0.50;;;;;25.30;96936.00;;;;5032130;28;20574;-69
2023/08/08 11:48:41;;;;;;;0.90;0.50;;;;;24.40;96870.00;;;;5043522;28;20223;-69
2023/08/08 11:51:30;;;;;;;0.93;0.83;;;;;25.50;96879.00;;;;5043883;28;20205;-70
2023/08/08 11:54:20;;;;;;;1.63;0.90;;;;;27.40;96912.00;;;;5040971;28;20227;-71
2023/08/08 11:57:11;;;;;;;1.30;0.70;;;;;28.40;96932.00;;;;5040475;28;20597;-71
2023/08/08 12:00:00;;;;;;;0.90;0.77;;;;;28.30;96925.00;;;;5032276;28;20238;-71
2023/08/08 12:02:49;;;;;;;0.80;0.80;;;;;28.30;96920.00;;;;5043132;28;20316;-70
2023/08/08 12:05:39;;;;;;;2.53;0.97;;;;;28.60;96908.00;;;;5028003;28;20212;-70
2023/08/08 12:08:32;;;;;;;1.30;0.70;;;;;27.70;96874.00;;;;5059419;22;20254;-72
2023/08/08 12:11:23;;;;;;;2.60;1.13;;;;;29.10;96929.00;;;;5021695;28;20242;-72
2023/08/08 12:14:15;;;;;;;0.73;0.67;;;;;27.00;96901.00;;;;5009332;28;20195;-71
2023/08/08 12:17:04;;;;;;;1.10;0.97;;;;;27.20;96906.00;;;;5020026;28;20333;-69
2023/08/08 12:19:53;;;;;;;1.17;1.03;;;;;27.30;96834.00;;;;5004274;28;20246;-71
2023/08/08 12:22:43;;;;;;;1.63;0.80;;;;;27.70;96911.00;;;;4998753;28;20213;-71
2023/08/08 12:25:33;;;;;;;1.07;0.80;;;;;26.90;96899.00;;;;5003806;28;20207;-71
2023/08/08 12:28:24;;;;;;;1.30;1.07;;;;;26.70;96863.00;;;;5010205;28;20229;-70
2023/08/08 12:31:13;;;;;;;1.47;0.70;;;;;25.90;96897.00;;;;4999900;28;20590;-70
2023/08/08 12:34:02;;;;;;;3.17;1.20;;;;;27.00;96893.00;;;;5004070;28;20205;-71
2023/08/08 12:36:52;;;;;;;1.27;0.63;;;;;27.60;96881.00;;;;5010508;28;20224;-71
2023/08/08 12:39:41;;;;;;;1.30;0.80;;;;;27.80;96893.00;;;;5009139;28;20232;-70
2023/08/08 12:42:30;;;;;;;3.13;1.20;;;;;27.80;96847.00;;;;5007261;28;20202;-71
2023/08/08 12:45:20;;;;;;;1.07;0.80;;;;;28.20;96874.00;;;;5005831;28;20676;-70
2023/08/08 12:48:09;;;;;;;1.27;0.80;;;;;28.60;96901.00;;;;5008321;28;20227;-71
2023/08/08 12:50:58;;;;;;;1.73;1.30;;;;;28.00;96908.00;;;;5008440;28;20239;-71
2023/08/08 12:53:47;;;;;;;2.53;0.90;;;;;26.40;96886.00;;;;5003912;28;20686;-71
2023/08/08 12:56:37;;;;;;;1.00;0.90;;;;;26.90;96884.00;;;;5005084;28;20222;-71
2023/08/08 12:59:26;;;;;;;1.00;0.83;;;;;26.90;96888.00;;;;4998412;28;20231;-71
2023/08/08 13:02:16;;;;;;;1.60;0.77;;;;;27.40;96828.00;;;;5003465;28;20212;-71
2023/08/08 13:05:06;;;;;;;1.43;0.60;;;;;27.40;96888.00;;;;4997107;28;20249;-70
2023/08/08 13:07:55;;;;;;;2.00;0.87;;;;;27.50;96881.00;;;;5009105;28;20613;-71
2023/08/08 13:10:45;;;;;;;0.93;0.83;;;;;28.30;96882.00;;;;4998276;28;20205;-71
2023/08/08 13:13:34;;;;;;;2.73;0.80;;;;;28.40;96889.00;;;;5003077;28;20216;-72
2023/08/08 13:16:23;;;;;;;1.33;0.80;;;;;28.10;96891.00;;;;5004228;28;20610;-70
2023/08/08 13:19:15;;;;;;;1.90;0.80;;;;;26.80;96877.00;;;;5005058;28;20280;-71
2023/08/08 13:22:04;;;;;;;0.67;0.57;;;;;26.50;96887.00;;;;5007634;28;20233;-71
2023/08/08 13:24:53;;;;;;;6.97;2.30;;;;;27.00;96887.00;;;;5007198;28;20214;-71
2023/08/08 13:27:42;;;;;;;2.43;1.10;;;;;26.20;96885.00;;;;4999508;28;20233;-71
2023/08/08 13:30:32;;;;;;;1.27;0.57;;;;;25.70;96874.00;;;;5002550;28;20205;-69
2023/08/08 13:33:21;;;;;;;1.37;0.80;;;;;26.20;96875.00;;;;5006427;28;20205;-68
2023/08/08 13:36:12;;;;;;;1.63;0.60;;;;;26.20;96873.00;;;;5008117;28;20199;-70
2023/08/08 13:39:01;;;;;;;1.60;0.60;;;;;26.00;96871.00;;;;5009977;28;20235;-71
2023/08/08 13:41:50;;;;;;;0.97;0.87;;;;;27.00;96866.00;;;;5007207;28;20208;-70
2023/08/08 13:44:39;;;;;;;0.77;0.77;;;;;28.90;96801.00;;;;4998742;28;20214;-72
2023/08/08 13:47:28;;;;;;;1.60;0.70;;;;;30.30;96798.00;;;;4999795;28;20211;-71
2023/08/08 13:50:17;;;;;;;0.50;0.50;;;;;29.10;96855.00;;;;5004561;28;20204;-71
2023/08/08 13:53:08;;;;;;;1.07;0.73;;;;;29.60;96807.00;;;;5003428;28;20613;-71
2023/08/08 13:55:57;;;;;;;1.43;0.60;;;;;28.90;96854.00;;;;5002867;28;20214;-71
2023/08/08 13:58:46;;;;;;;0.50;0.40;;;;;29.60;96810.00;;;;5002772;28;20710;-69
2023/08/08 14:01:36;;;;;;;0.70;0.60;;;;;27.80;96809.00;;;;4996830;28;20212;-71
2023/08/08 14:04:25;;;;;;;0.70;0.50;;;;;29.70;96798.00;;;;5005065;28;20210;-71
2023/08/08 14:07:14;;;;;;;2.73;0.80;;;;;31.40;96858.00;;;;5003854;28;20211;-71
2023/08/08 14:10:06;;;;;;;2.00;0.70;;;;;30.00;96862.00;;;;5001027;28;20194;-73
2023/08/08 14:12:55;;;;;;;0.98;0.70;;;;;29.50;96868.00;;;;4999323;28;20248;-72